createdAt,value
2023-04-03T00:01:28.856Z,96870.47
2023-04-03T00:03:57.512Z,96876.47
2023-04-03T00:06:27.620Z,96868.47
2023-04-03T00:08:56.030Z,96870.56
2023-04-03T00:11:24.394Z,96878.66
2023-04-03T00:13:52.902Z,96871.69
2023-04-03T00:16:21.388Z,96873.81
2023-04-03T00:18:49.755Z,96873.59
2023-04-03T00:21:18.132Z,96866.16
2023-04-03T00:23:47.881Z,96869.03
2023-04-03T00:26:16.199Z,96865.25
2023-04-03T00:28:44.591Z,96872.22
2023-04-03T00:31:12.967Z,96878.41
2023-04-03T00:33:41.292Z,96870.34
2023-04-03T00:36:11.723Z,96877.41
2023-04-03T00:38:41.942Z,96868.06
2023-04-03T00:41:11.609Z,96868.09
2023-04-03T00:43:39.965Z,96867.72
2023-04-03T00:46:08.241Z,96863.16
2023-04-03T00:48:38.546Z,96869.81
2023-04-03T00:51:08.735Z,96865.25
2023-04-03T00:53:41.706Z,96868.00
2023-04-03T00:56:15.116Z,96860.56
2023-04-03T00:58:47.022Z,96862.69
2023-04-03T01:01:19.045Z,96862.97
2023-04-03T01:03:47.386Z,96858.50
2023-04-03T01:06:18.747Z,96863.06
2023-04-03T01:08:48.016Z,96866.84
2023-04-03T01:11:17.818Z,96859.06
2023-04-03T01:13:46.169Z,96864.31
2023-04-03T01:16:14.444Z,96863.41
2023-04-03T01:18:43.078Z,96857.84
2023-04-03T01:21:58.708Z,96873.09
2023-04-03T01:24:34.887Z,96868.06
2023-04-03T01:27:06.838Z,96870.75
2023-04-03T01:29:35.124Z,96865.53
2023-04-03T01:32:05.839Z,96863.69
2023-04-03T01:34:34.131Z,96870.72
2023-04-03T01:37:02.599Z,96869.72
2023-04-03T01:39:30.884Z,96875.25
2023-04-03T01:42:00.304Z,96870.28
2023-04-03T01:44:28.643Z,96873.16
2023-04-03T01:46:56.885Z,96875.59
2023-04-03T01:49:26.726Z,96874.63
2023-04-03T01:51:55.002Z,96868.84
2023-04-03T01:54:23.376Z,96876.34
2023-04-03T01:56:51.665Z,96875.75
2023-04-03T01:59:20.281Z,96873.38
2023-04-03T02:01:48.601Z,96872.19
2023-04-03T02:04:16.937Z,96867.44
2023-04-03T02:06:46.620Z,96865.31
2023-04-03T02:09:15.002Z,96876.19
2023-04-03T02:11:43.358Z,96873.25
2023-04-03T02:14:11.606Z,96869.63
2023-04-03T02:16:40.071Z,96870.13
2023-04-03T02:19:08.410Z,96871.66
2023-04-03T02:21:36.771Z,96868.38
2023-04-03T02:24:07.414Z,96872.09
2023-04-03T02:26:35.519Z,96874.63
2023-04-03T02:29:03.803Z,96866.19
2023-04-03T02:31:32.160Z,96869.59
2023-04-03T02:34:00.524Z,96862.91
2023-04-03T02:36:30.085Z,96865.88
2023-04-03T02:38:59.190Z,96869.59
2023-04-03T02:41:34.623Z,96861.44
2023-04-03T02:44:02.943Z,96855.53
2023-04-03T02:46:31.253Z,96867.84
2023-04-03T02:48:59.663Z,96862.53
2023-04-03T02:51:27.915Z,96864.09
2023-04-03T02:53:56.144Z,96869.78
2023-04-03T02:56:24.427Z,96867.31
2023-04-03T02:58:54.261Z,96870.28
2023-04-03T03:01:22.690Z,96863.81
2023-04-03T03:03:51.034Z,96864.75
2023-04-03T03:06:19.773Z,96875.66
2023-04-03T03:08:48.016Z,96873.88
2023-04-03T03:11:16.493Z,96879.53
2023-04-03T03:13:44.743Z,96883.63
2023-04-03T03:16:14.515Z,96873.50
2023-04-03T03:18:42.854Z,96875.56
2023-04-03T03:21:11.599Z,96880.16
2023-04-03T03:23:39.920Z,96867.34
2023-04-03T03:26:10.542Z,96862.19
2023-04-03T03:28:38.970Z,96874.22
2023-04-03T03:31:07.495Z,96875.47
2023-04-03T03:33:37.820Z,96865.16
2023-04-03T03:36:06.600Z,96871.09
2023-04-03T03:38:35.006Z,96871.50
2023-04-03T03:41:03.329Z,96865.44
2023-04-03T03:43:31.621Z,96873.16
2023-04-03T03:45:59.905Z,96877.59
2023-04-03T03:48:28.181Z,96868.94
2023-04-03T03:50:57.806Z,96876.34
2023-04-03T03:53:26.598Z,96869.53
2023-04-03T03:55:54.923Z,96869.03
2023-04-03T03:58:23.330Z,96876.19
2023-04-03T04:00:51.702Z,96881.19
2023-04-03T04:03:20.154Z,96868.06
2023-04-03T04:05:48.590Z,96870.66
2023-04-03T04:08:18.271Z,96879.13
2023-04-03T04:10:46.553Z,96873.09
2023-04-03T04:13:14.789Z,96866.38
2023-04-03T04:15:43.053Z,96873.06
2023-04-03T04:18:11.422Z,96866.50
2023-04-03T04:20:39.666Z,96875.28
2023-04-03T04:23:07.942Z,96879.69
2023-04-03T04:25:37.928Z,96880.59
2023-04-03T04:28:06.945Z,96873.84
2023-04-03T04:30:35.300Z,96872.44
2023-04-03T04:33:03.767Z,96872.38
2023-04-03T04:35:32.213Z,96879.56
2023-04-03T04:38:00.857Z,96885.28
2023-04-03T04:40:29.390Z,96885.53
2023-04-03T04:42:59.123Z,96883.34
2023-04-03T04:45:27.412Z,96879.75
2023-04-03T04:47:57.396Z,96881.31
2023-04-03T04:50:25.821Z,96886.56
2023-04-03T04:52:54.112Z,96892.50
2023-04-03T04:55:22.437Z,96892.03
2023-04-03T04:57:50.739Z,96892.00
2023-04-03T05:00:21.500Z,96897.97
2023-04-03T05:02:49.883Z,96890.84
2023-04-03T05:05:18.560Z,96897.38
2023-04-03T05:07:46.935Z,96892.44
2023-04-03T05:10:15.181Z,96889.38
2023-04-03T05:12:43.455Z,96896.63
2023-04-03T05:15:12.431Z,96899.03
2023-04-03T05:17:42.198Z,96892.72
2023-04-03T05:20:11.577Z,96900.41
2023-04-03T05:22:39.886Z,96902.31
2023-04-03T05:25:09.158Z,96901.13
2023-04-03T05:27:37.482Z,96906.09
2023-04-03T05:30:07.001Z,96904.88
2023-04-03T05:32:35.296Z,96908.38
2023-04-03T05:35:05.343Z,96903.84
2023-04-03T05:37:33.938Z,96898.22
2023-04-03T05:40:02.729Z,96904.72
2023-04-03T05:42:31.053Z,96901.59
2023-04-03T05:44:59.581Z,96904.75
2023-04-03T05:47:27.983Z,96900.69
2023-04-03T05:49:56.285Z,96906.78
2023-04-03T05:52:28.860Z,96905.69
2023-04-03T05:54:57.863Z,96907.00
2023-04-03T05:57:26.299Z,96901.03
2023-04-03T05:59:54.562Z,96903.81
2023-04-03T06:02:25.006Z,96910.50
2023-04-03T06:04:53.718Z,96905.47
2023-04-03T06:07:23.822Z,96915.28
2023-04-03T06:09:53.962Z,96916.00
2023-04-03T06:12:22.627Z,96917.38
2023-04-03T06:14:51.256Z,96912.31
2023-04-03T06:17:20.172Z,96920.66
2023-04-03T06:19:49.020Z,96918.09
2023-04-03T06:22:17.552Z,96920.31
2023-04-03T06:24:45.788Z,96919.47
2023-04-03T06:27:15.796Z,96921.47
2023-04-03T06:29:44.220Z,96927.19
2023-04-03T06:32:12.480Z,96921.25
2023-04-03T06:34:40.795Z,96923.41
2023-04-03T06:37:09.314Z,96924.84
2023-04-03T06:39:37.658Z,96926.47
2023-04-03T06:42:06.065Z,96924.88
2023-04-03T06:44:35.933Z,96925.41
2023-04-03T06:47:04.334Z,96930.13
2023-04-03T06:49:32.931Z,96932.97
2023-04-03T06:52:02.657Z,96932.38
2023-04-03T06:54:31.274Z,96926.22
2023-04-03T06:56:59.773Z,96931.44
2023-04-03T06:59:28.202Z,96931.22
2023-04-03T07:01:59.664Z,96939.19
2023-04-03T07:04:28.358Z,96939.22
2023-04-03T07:06:56.750Z,96938.47
2023-04-03T07:09:25.186Z,96946.59
2023-04-03T07:11:53.577Z,96951.53
2023-04-03T07:14:22.354Z,96950.31
2023-04-03T07:16:50.756Z,96950.78
2023-04-03T07:19:20.405Z,96949.88
2023-04-03T07:21:49.257Z,96962.09
2023-04-03T07:24:17.504Z,96963.53
2023-04-03T07:26:46.323Z,96967.19
2023-04-03T07:29:15.084Z,96972.50
2023-04-03T07:31:43.581Z,96971.91
2023-04-03T07:34:11.917Z,96969.94
2023-04-03T07:36:41.756Z,96971.66
2023-04-03T07:39:10.006Z,96984.53
2023-04-03T07:41:38.563Z,96988.44
2023-04-03T07:44:07.050Z,96972.84
2023-04-03T07:46:35.455Z,96980.19
2023-04-03T07:49:03.987Z,96979.25
2023-04-03T07:51:32.404Z,96983.13
2023-04-03T07:54:02.122Z,96985.75
2023-04-03T07:56:30.448Z,96985.97
2023-04-03T07:58:58.838Z,96983.22
2023-04-03T08:01:27.193Z,96984.97
2023-04-03T08:03:55.934Z,96989.06
2023-04-03T08:06:37.430Z,96986.69
2023-04-03T08:09:12.417Z,96995.66
2023-04-03T08:11:41.084Z,96995.34
2023-04-03T08:14:11.993Z,96988.16
2023-04-03T08:16:40.452Z,96988.88
2023-04-03T08:19:15.109Z,96995.50
2023-04-03T08:21:47.930Z,96995.50
2023-04-03T08:24:17.602Z,96994.66
2023-04-03T08:26:45.904Z,96989.53
2023-04-03T08:29:14.489Z,96997.72
2023-04-03T08:31:42.813Z,96986.69
2023-04-03T08:34:11.142Z,96986.69
2023-04-03T08:36:39.540Z,96984.69
2023-04-03T08:39:07.865Z,96989.22
2023-04-03T08:41:40.731Z,96984.22
2023-04-03T08:44:17.948Z,96987.53
2023-04-03T08:46:57.898Z,96989.84
2023-04-03T08:49:29.884Z,96990.88
2023-04-03T08:51:58.426Z,96998.41
2023-04-03T08:54:31.909Z,96989.59
2023-04-03T08:57:04.800Z,96998.56
2023-04-03T08:59:35.757Z,96992.59
2023-04-03T09:02:23.838Z,96994.31
2023-04-03T09:04:52.201Z,96993.59
2023-04-03T09:07:24.878Z,96994.16
2023-04-03T09:09:54.174Z,96993.34
2023-04-03T09:12:27.709Z,97000.75
2023-04-03T09:15:02.770Z,96994.91
2023-04-03T09:17:39.656Z,96991.69
2023-04-03T09:20:18.967Z,96999.59
2023-04-03T09:22:52.407Z,96995.38
2023-04-03T09:25:23.801Z,96999.28
2023-04-03T09:27:53.369Z,96998.06
2023-04-03T09:30:24.409Z,96994.09
2023-04-03T09:32:54.930Z,96992.13
2023-04-03T09:35:32.849Z,96999.94
2023-04-03T09:38:22.016Z,96995.84
2023-04-03T09:40:52.162Z,96998.72
2023-04-03T09:43:30.568Z,96994.22
2023-04-03T09:46:20.671Z,96983.66
2023-04-03T09:49:05.100Z,96992.75
2023-04-03T09:51:37.815Z,96994.84
2023-04-03T09:54:28.413Z,96988.34
2023-04-03T09:56:57.664Z,96999.28
2023-04-03T09:59:27.452Z,97006.31
2023-04-03T10:02:02.991Z,96992.88
2023-04-03T10:04:40.424Z,97001.44
2023-04-03T10:07:31.403Z,96994.03
2023-04-03T10:10:00.260Z,97001.72
2023-04-03T10:12:28.536Z,96993.53
2023-04-03T10:14:59.647Z,96999.22
2023-04-03T10:17:36.800Z,96990.00
2023-04-03T10:20:12.903Z,97000.56
2023-04-03T10:22:56.182Z,97003.84
2023-04-03T10:25:33.234Z,96996.16
2023-04-03T10:28:03.854Z,96992.88
2023-04-03T10:30:38.847Z,96989.47
2023-04-03T10:33:31.036Z,96991.03
2023-04-03T10:36:10.483Z,96991.28
2023-04-03T10:38:45.535Z,96983.00
2023-04-03T10:41:21.116Z,96987.47
2023-04-03T10:43:56.380Z,96985.91
2023-04-03T10:46:30.621Z,97009.09
2023-04-03T10:49:13.037Z,97003.03
2023-04-03T10:51:44.491Z,96995.44
2023-04-03T10:54:15.215Z,96998.41
2023-04-03T10:56:45.209Z,96997.69
2023-04-03T10:59:25.478Z,96999.03
2023-04-03T11:01:58.607Z,96989.28
2023-04-03T11:04:29.860Z,96994.56
2023-04-03T11:07:01.998Z,96973.97
2023-04-03T11:09:32.301Z,96983.22
2023-04-03T11:12:04.717Z,96983.97
2023-04-03T11:14:35.768Z,96979.25
2023-04-03T11:17:09.429Z,96981.00
2023-04-03T11:19:41.486Z,96982.69
2023-04-03T11:22:14.884Z,96959.72
2023-04-03T11:24:45.291Z,96960.34
2023-04-03T11:27:19.659Z,96968.41
2023-04-03T11:29:48.653Z,96961.34
2023-04-03T11:32:38.153Z,96950.00
2023-04-03T11:35:08.398Z,96960.56
2023-04-03T11:37:37.815Z,96952.72
2023-04-03T11:40:10.110Z,96947.38
2023-04-03T11:42:39.965Z,96941.88
2023-04-03T11:45:33.891Z,96945.81
2023-04-03T11:48:16.580Z,96950.72
2023-04-03T11:50:52.321Z,96955.44
2023-04-03T11:53:33.301Z,96929.97
2023-04-03T11:56:03.443Z,96936.84
2023-04-03T11:58:33.835Z,96927.75
2023-04-03T12:01:08.581Z,96923.31
2023-04-03T12:04:06.774Z,96930.28
2023-04-03T12:07:23.226Z,96925.25
2023-04-03T12:10:01.969Z,96931.88
2023-04-03T12:12:37.012Z,96937.09
2023-04-03T12:15:22.409Z,96931.63
2023-04-03T12:17:51.689Z,96921.25
2023-04-03T12:21:03.998Z,96932.94
2023-04-03T12:23:34.066Z,96919.16
2023-04-03T12:26:07.787Z,96912.16
2023-04-03T12:28:41.552Z,96916.31
2023-04-03T12:31:12.649Z,96908.53
2023-04-03T12:33:58.724Z,96907.22
2023-04-03T12:36:33.022Z,96914.81
2023-04-03T12:39:13.559Z,96917.31
2023-04-03T12:41:50.609Z,96920.59
2023-04-03T12:44:29.472Z,96903.97
2023-04-03T12:47:01.956Z,96914.13
2023-04-03T12:49:38.353Z,96910.63
2023-04-03T12:52:08.470Z,96908.97
2023-04-03T12:54:38.810Z,96903.66
2023-04-03T12:57:19.070Z,96903.78
2023-04-03T12:59:48.233Z,96907.81
2023-04-03T13:02:24.400Z,96907.63
2023-04-03T13:04:53.383Z,96898.53
2023-04-03T13:07:26.548Z,96901.50
2023-04-03T13:10:00.166Z,96911.31
2023-04-03T13:12:30.683Z,96903.06
2023-04-03T13:15:05.211Z,96902.66
2023-04-03T13:17:33.656Z,96899.13
2023-04-03T13:20:13.296Z,96905.47
2023-04-03T13:22:45.083Z,96913.00
2023-04-03T13:25:15.950Z,96892.22
2023-04-03T13:27:46.037Z,96890.53
2023-04-03T13:30:27.249Z,96892.91
2023-04-03T13:32:56.317Z,96901.63
2023-04-03T13:35:36.864Z,96886.88
2023-04-03T13:38:08.831Z,96883.09
2023-04-03T13:40:49.789Z,96891.41
2023-04-03T13:43:26.326Z,96890.22
2023-04-03T13:46:05.924Z,96885.06
2023-04-03T13:48:40.452Z,96878.63
2023-04-03T13:51:20.111Z,96880.66
2023-04-03T13:53:51.124Z,96877.22
2023-04-03T13:56:23.329Z,96867.22
2023-04-03T13:59:03.222Z,96886.50
2023-04-03T14:01:43.826Z,96890.88
2023-04-03T14:04:13.359Z,96883.88
2023-04-03T14:06:41.611Z,96883.75
2023-04-03T14:09:10.017Z,96891.72
2023-04-03T14:11:38.436Z,96904.91
2023-04-03T14:14:14.935Z,96898.56
2023-04-03T14:16:45.788Z,96883.34
2023-04-03T14:19:20.167Z,96888.00
2023-04-03T14:21:48.816Z,96893.44
2023-04-03T14:24:17.548Z,96893.09
2023-04-03T14:26:46.209Z,96891.94
2023-04-03T14:29:16.626Z,96883.00
2023-04-03T14:31:46.150Z,96868.44
2023-04-03T14:34:15.104Z,96879.38
2023-04-03T14:36:44.887Z,96874.25
2023-04-03T14:39:19.878Z,96871.91
2023-04-03T14:41:48.328Z,96871.06
2023-04-03T14:44:17.951Z,96883.47
2023-04-03T14:46:56.363Z,96870.94
2023-04-03T14:49:29.160Z,96873.44
2023-04-03T14:51:58.089Z,96865.72
2023-04-03T14:54:28.796Z,96871.25
2023-04-03T14:56:59.326Z,96865.72
2023-04-03T14:59:29.387Z,96874.69
2023-04-03T15:01:57.861Z,96872.19
2023-04-03T15:04:26.786Z,96871.81
2023-04-03T15:06:55.410Z,96877.91
2023-04-03T15:09:25.144Z,96876.22
2023-04-03T15:11:54.743Z,96895.28
2023-04-03T15:14:35.850Z,96871.91
2023-04-03T15:17:07.437Z,96874.72
2023-04-03T15:19:39.592Z,96885.22
2023-04-03T15:22:08.259Z,96879.72
2023-04-03T15:24:36.540Z,96882.75
2023-04-03T15:27:04.897Z,96891.97
2023-04-03T15:29:33.243Z,96882.56
2023-04-03T15:32:01.602Z,96888.88
2023-04-03T15:34:32.256Z,96891.56
2023-04-03T15:37:00.649Z,96894.25
2023-04-03T15:39:29.270Z,96895.97
2023-04-03T15:42:00.781Z,96895.75
2023-04-03T15:44:29.135Z,96900.34
2023-04-03T15:46:57.425Z,96885.94
2023-04-03T15:49:25.793Z,96881.19
2023-04-03T15:51:55.566Z,96886.22
2023-04-03T15:54:25.033Z,96876.75
2023-04-03T15:56:53.444Z,96877.75
2023-04-03T15:59:21.875Z,96886.22
2023-04-03T16:01:51.127Z,96891.72
2023-04-03T16:04:20.653Z,96885.41
2023-04-03T16:06:49.042Z,96885.69
2023-04-03T16:09:18.987Z,96900.91
2023-04-03T16:11:47.275Z,96902.63
2023-04-03T16:14:15.715Z,96899.78
2023-04-03T16:16:43.994Z,96912.56
2023-04-03T16:19:12.389Z,96898.84
2023-04-03T16:21:40.981Z,96906.94
2023-04-03T16:24:09.373Z,96901.16
2023-04-03T16:26:39.021Z,96902.78
2023-04-03T16:29:07.307Z,96908.09
2023-04-03T16:31:35.795Z,96906.91
2023-04-03T16:34:04.187Z,96906.53
2023-04-03T16:36:32.586Z,96910.25
2023-04-03T16:39:00.854Z,96928.78
2023-04-03T16:41:29.061Z,96918.66
2023-04-03T16:43:58.688Z,96927.41
2023-04-03T16:46:27.004Z,96919.66
2023-04-03T16:48:55.448Z,96921.91
2023-04-03T16:51:23.981Z,96924.25
2023-04-03T16:53:52.275Z,96938.78
2023-04-03T16:56:21.190Z,96927.97
2023-04-03T16:58:49.536Z,96941.44
2023-04-03T17:01:20.471Z,96940.22
2023-04-03T17:03:49.022Z,96937.19
2023-04-03T17:06:19.836Z,96936.13
2023-04-03T17:08:50.088Z,96937.28
2023-04-03T17:11:18.642Z,96939.31
2023-04-03T17:13:46.874Z,96944.94
2023-04-03T17:16:16.524Z,96945.22
2023-04-03T17:18:46.856Z,96943.50
2023-04-03T17:21:15.535Z,96940.88
2023-04-03T17:23:45.729Z,96936.56
2023-04-03T17:26:14.443Z,96940.34
2023-04-03T17:28:44.207Z,96942.25
2023-04-03T17:31:13.824Z,96954.91
2023-04-03T17:33:42.115Z,96953.56
2023-04-03T17:36:12.032Z,96957.19
2023-04-03T17:38:40.397Z,96953.59
2023-04-03T17:41:09.872Z,96952.91
2023-04-03T17:43:38.202Z,96954.38
2023-04-03T17:46:09.121Z,96959.63
2023-04-03T17:48:38.758Z,96954.91
2023-04-03T17:51:07.991Z,96954.75
2023-04-03T17:53:37.719Z,96960.41
2023-04-03T17:56:09.325Z,96965.94
2023-04-03T17:58:37.634Z,96954.53
2023-04-03T18:01:10.777Z,96969.38
2023-04-03T18:03:39.249Z,96976.00
2023-04-03T18:06:10.409Z,96971.22
2023-04-03T18:08:42.871Z,96960.28
2023-04-03T18:11:11.537Z,96976.13
2023-04-03T18:13:40.069Z,96979.91
2023-04-03T18:16:09.817Z,96980.63
2023-04-03T18:18:38.248Z,96973.16
2023-04-03T18:21:06.854Z,96980.50
2023-04-03T18:23:36.613Z,96979.00
2023-04-03T18:26:08.561Z,96984.75
2023-04-03T18:28:36.866Z,97001.59
2023-04-03T18:31:05.216Z,96995.00
2023-04-03T18:33:33.658Z,97003.03
2023-04-03T18:36:01.962Z,97000.41
2023-04-03T18:38:30.218Z,96999.63
2023-04-03T18:40:58.560Z,97004.56
2023-04-03T18:43:28.206Z,97009.63
2023-04-03T18:45:56.734Z,97008.72
2023-04-03T18:48:25.955Z,97006.91
2023-04-03T18:50:55.066Z,97018.00
2023-04-03T18:53:23.412Z,97021.72
2023-04-03T18:55:51.646Z,97013.31
2023-04-03T18:58:20.004Z,97020.81
2023-04-03T19:00:49.670Z,97015.72
2023-04-03T19:03:18.026Z,97016.09
2023-04-03T19:05:46.973Z,97020.69
2023-04-03T19:08:15.685Z,97026.75
2023-04-03T19:10:44.358Z,97023.50
2023-04-03T19:13:12.664Z,97019.91
2023-04-03T19:15:40.973Z,97021.41
2023-04-03T19:18:10.693Z,97033.81
2023-04-03T19:20:39.047Z,97023.34
2023-04-03T19:23:08.733Z,97026.97
2023-04-03T19:25:38.222Z,97023.72
2023-04-03T19:28:06.700Z,97027.41
2023-04-03T19:30:34.995Z,97024.78
2023-04-03T19:33:03.377Z,97029.34
2023-04-03T19:35:33.019Z,97029.63
2023-04-03T19:38:01.305Z,97035.13
2023-04-03T19:40:32.388Z,97034.59
2023-04-03T19:43:00.783Z,97034.22
2023-04-03T19:45:30.414Z,97029.47
2023-04-03T19:48:01.375Z,97034.66
2023-04-03T19:50:29.813Z,97036.03
2023-04-03T19:53:00.052Z,97034.09
2023-04-03T19:55:31.521Z,97033.41
2023-04-03T19:58:00.573Z,97023.69
2023-04-03T20:00:29.786Z,97035.13
2023-04-03T20:02:58.264Z,97039.56
2023-04-03T20:05:26.585Z,97023.75
2023-04-03T20:07:55.918Z,97038.44
2023-04-03T20:10:53.437Z,97045.41
2023-04-03T20:13:22.393Z,97033.38
2023-04-03T20:15:50.736Z,97044.47
2023-04-03T20:18:20.802Z,97037.28
2023-04-03T20:20:54.533Z,97026.59
2023-04-03T20:23:23.016Z,97029.38
2023-04-03T20:26:02.036Z,97028.63
2023-04-03T20:28:38.030Z,97031.91
2023-04-03T20:31:07.889Z,97024.19
2023-04-03T20:33:37.255Z,97022.88
2023-04-03T20:36:05.635Z,97022.22
2023-04-03T20:38:33.976Z,97033.34
2023-04-03T20:41:04.546Z,97029.44
2023-04-03T20:43:32.581Z,97026.97
2023-04-03T20:46:01.580Z,97033.03
2023-04-03T20:48:31.210Z,97036.34
2023-04-03T20:50:59.494Z,97029.00
2023-04-03T20:53:28.346Z,97031.22
2023-04-03T20:55:59.860Z,97023.44
2023-04-03T20:58:33.049Z,97035.06
2023-04-03T21:01:01.849Z,97030.03
2023-04-03T21:03:31.691Z,97032.03
2023-04-03T21:06:00.938Z,97036.34
2023-04-03T21:09:06.701Z,97023.69
2023-04-03T21:12:12.222Z,97037.31
2023-04-03T21:15:18.012Z,97031.66
2023-04-03T21:18:07.788Z,97025.47
2023-04-03T21:20:37.238Z,97028.53
2023-04-03T21:23:05.520Z,97025.28
2023-04-03T21:25:33.878Z,97031.22
2023-04-03T21:28:02.444Z,97035.22
2023-04-03T21:30:31.484Z,97039.31
2023-04-03T21:33:01.516Z,97036.94
2023-04-03T21:35:30.772Z,97036.94
2023-04-03T21:37:59.401Z,97039.06
2023-04-03T21:40:27.768Z,97046.31
2023-04-03T21:42:56.206Z,97040.00
2023-04-03T21:45:24.496Z,97032.25
2023-04-03T21:47:52.898Z,97036.03
2023-04-03T21:50:22.714Z,97035.22
2023-04-03T21:52:54.235Z,97038.25
2023-04-03T21:55:22.567Z,97036.81
2023-04-03T21:57:54.447Z,97027.28
2023-04-03T22:00:24.091Z,97026.88
2023-04-03T22:03:00.482Z,97030.25
2023-04-03T22:05:37.843Z,97033.19
2023-04-03T22:08:07.195Z,97027.03
2023-04-03T22:10:35.570Z,97022.97
2023-04-03T22:13:03.854Z,97032.66
2023-04-03T22:15:32.102Z,97036.50
2023-04-03T22:18:01.242Z,97030.75
2023-04-03T22:20:29.574Z,97029.34
2023-04-03T22:22:59.235Z,97033.06
2023-04-03T22:25:27.496Z,97031.22
2023-04-03T22:27:55.861Z,97036.94
2023-04-03T22:30:24.146Z,97035.16
2023-04-03T22:32:52.499Z,97032.72
2023-04-03T22:35:21.491Z,97031.03
2023-04-03T22:37:49.722Z,97031.59
2023-04-03T22:40:19.668Z,97029.91
2023-04-03T22:42:48.207Z,97036.44
2023-04-03T22:45:16.802Z,97035.06
2023-04-03T22:47:45.057Z,97030.94
2023-04-03T22:50:13.839Z,97024.44
2023-04-03T22:52:42.206Z,97020.72
2023-04-03T22:55:19.471Z,97027.50
2023-04-03T22:57:49.648Z,97026.03
2023-04-03T23:00:18.282Z,97027.19
2023-04-03T23:02:46.626Z,97030.78
2023-04-03T23:05:15.405Z,97034.97
2023-04-03T23:07:43.703Z,97036.38
2023-04-03T23:10:12.656Z,97027.50
2023-04-03T23:12:41.358Z,97025.28
2023-04-03T23:15:11.514Z,97027.97
2023-04-03T23:17:39.786Z,97030.78
2023-04-03T23:20:09.765Z,97025.38
2023-04-03T23:22:38.038Z,97028.09
2023-04-03T23:25:07.596Z,97029.31
2023-04-03T23:27:36.614Z,97022.03
2023-04-03T23:30:05.726Z,97030.97
2023-04-03T23:32:35.425Z,97034.94
2023-04-03T23:35:03.942Z,97026.78
2023-04-03T23:37:32.174Z,97023.66
2023-04-03T23:40:02.246Z,97020.06
2023-04-03T23:42:31.307Z,97019.75
2023-04-03T23:44:59.612Z,97013.63
2023-04-03T23:47:27.932Z,97012.16
2023-04-03T23:49:58.510Z,97014.97
2023-04-03T23:52:26.627Z,97013.34
2023-04-03T23:54:54.774Z,97018.59
2023-04-03T23:57:23.106Z,97009.84
2023-04-03T23:59:51.567Z,97017.97
